createdAt,value
2017-11-13T00:01:15.652Z,95719
2017-11-13T00:03:42.299Z,95723
2017-11-13T00:06:09.741Z,95745
2017-11-13T00:08:36.435Z,95759
2017-11-13T00:11:03.160Z,95749
2017-11-13T00:13:30.591Z,95761
2017-11-13T00:15:57.287Z,95749
2017-11-13T00:18:24.051Z,95757
2017-11-13T00:20:50.735Z,95771
2017-11-13T00:23:17.426Z,95794
2017-11-13T00:25:44.160Z,95790
2017-11-13T00:28:10.903Z,95794
2017-11-13T00:30:37.595Z,95777
2017-11-13T00:33:04.290Z,95787
2017-11-13T00:35:31.004Z,95791
2017-11-13T00:37:58.415Z,95796
2017-11-13T00:40:25.160Z,95794
2017-11-13T00:42:51.824Z,95789
2017-11-13T00:45:18.484Z,95786
2017-11-13T00:47:45.163Z,95789
2017-11-13T00:50:11.854Z,95795
2017-11-13T00:52:38.540Z,95785
2017-11-13T00:55:05.204Z,95789
2017-11-13T00:57:31.880Z,95786
2017-11-13T00:59:59.342Z,95800
2017-11-13T01:02:26.007Z,95769
2017-11-13T01:04:52.711Z,95776
2017-11-13T01:07:20.188Z,95771
2017-11-13T01:09:46.912Z,95771
2017-11-13T01:12:13.607Z,95784
2017-11-13T01:14:41.024Z,95777
2017-11-13T01:17:07.698Z,95785
2017-11-13T01:19:34.435Z,95787
2017-11-13T01:22:01.096Z,95793
2017-11-13T01:24:27.767Z,95788
2017-11-13T01:26:54.539Z,95795
2017-11-13T01:29:21.191Z,95800
2017-11-13T01:31:47.943Z,95803
2017-11-13T01:34:14.676Z,95804
2017-11-13T01:36:41.332Z,95802
2017-11-13T01:39:08.008Z,95810
2017-11-13T01:41:34.776Z,95805
2017-11-13T01:44:01.432Z,95798
2017-11-13T01:46:29.078Z,95809
2017-11-13T01:48:55.771Z,95819
2017-11-13T01:51:22.505Z,95819
2017-11-13T01:53:49.184Z,95814
2017-11-13T01:56:16.705Z,95814
2017-11-13T01:58:43.370Z,95807
2017-11-13T02:01:10.103Z,95823
2017-11-13T02:03:36.896Z,95815
2017-11-13T02:06:03.698Z,95850
2017-11-13T02:08:30.519Z,95829
2017-11-13T02:10:57.326Z,95841
2017-11-13T02:13:24.053Z,95844
2017-11-13T02:15:51.500Z,95839
2017-11-13T02:18:18.208Z,95858
2017-11-13T02:20:45.012Z,95863
2017-11-13T02:23:12.568Z,95856
2017-11-13T02:25:40.157Z,95862
2017-11-13T02:28:07.002Z,95855
2017-11-13T02:30:33.842Z,95853
2017-11-13T02:33:00.608Z,95858
2017-11-13T02:35:27.363Z,95857
2017-11-13T02:37:54.092Z,95859
2017-11-13T02:40:20.901Z,95854
2017-11-13T02:42:48.418Z,95845
2017-11-13T02:45:15.177Z,95850
2017-11-13T02:47:41.974Z,95849
2017-11-13T02:50:09.588Z,95839
2017-11-13T02:52:36.343Z,95840
2017-11-13T02:55:03.093Z,95842
2017-11-13T02:57:29.843Z,95851
2017-11-13T02:59:57.316Z,95836
2017-11-13T03:02:24.744Z,95834
2017-11-13T03:04:51.408Z,95832
2017-11-13T03:07:18.087Z,95820
2017-11-13T03:09:44.820Z,95820
2017-11-13T03:12:11.487Z,95811
2017-11-13T03:14:38.244Z,95824
2017-11-13T03:17:04.996Z,95836
2017-11-13T03:19:31.685Z,95835
2017-11-13T03:21:59.132Z,95845
2017-11-13T03:24:26.704Z,95852
2017-11-13T03:26:54.135Z,95861
2017-11-13T03:29:20.847Z,95858
2017-11-13T03:31:47.588Z,95860
2017-11-13T03:34:14.273Z,95846
2017-11-13T03:36:40.950Z,95867
2017-11-13T03:39:08.451Z,95871
2017-11-13T03:41:35.157Z,95869
2017-11-13T03:44:01.861Z,95877
2017-11-13T03:46:29.372Z,95868
2017-11-13T03:48:56.048Z,95879
2017-11-13T03:51:22.707Z,95882
2017-11-13T03:53:49.412Z,95881
2017-11-13T03:56:16.097Z,95885
2017-11-13T03:58:42.765Z,95893
2017-11-13T04:01:11.444Z,95902
2017-11-13T04:03:38.836Z,95907
2017-11-13T04:06:05.506Z,95909
2017-11-13T04:08:33.172Z,95912
2017-11-13T04:11:00.456Z,95910
2017-11-13T04:13:27.148Z,95910
2017-11-13T04:15:53.862Z,95914
2017-11-13T04:18:20.553Z,95925
2017-11-13T04:20:47.220Z,95922
2017-11-13T04:23:13.940Z,95926
2017-11-13T04:25:40.636Z,95933
2017-11-13T04:28:08.125Z,95934
2017-11-13T04:30:34.881Z,95935
2017-11-13T04:33:01.525Z,95930
2017-11-13T04:35:28.192Z,95936
2017-11-13T04:40:34.788Z,95936
2017-11-13T04:43:03.058Z,95933
2017-11-13T04:45:31.642Z,95936
2017-11-13T04:47:58.542Z,95939
2017-11-13T04:50:38.697Z,95941
2017-11-13T04:53:20.033Z,95950
2017-11-13T04:55:46.738Z,95948
2017-11-13T04:58:15.317Z,95946
2017-11-13T05:00:43.842Z,95943
2017-11-13T05:03:12.314Z,95945
2017-11-13T05:05:40.784Z,95939
2017-11-13T05:08:07.473Z,95954
2017-11-13T05:10:34.379Z,95962
2017-11-13T05:13:01.076Z,95962
2017-11-13T05:15:27.798Z,95968
2017-11-13T05:17:55.376Z,95970
2017-11-13T05:20:22.093Z,95964
2017-11-13T05:22:50.020Z,95974
2017-11-13T05:25:18.525Z,95970
2017-11-13T05:27:45.224Z,95979
2017-11-13T05:30:12.259Z,95975
2017-11-13T05:32:38.917Z,95983
2017-11-13T05:35:05.600Z,95994
2017-11-13T05:37:33.983Z,95985
2017-11-13T05:40:02.219Z,95988
2017-11-13T05:42:30.236Z,95982
2017-11-13T05:44:57.286Z,95989
2017-11-13T05:47:24.284Z,95998
2017-11-13T05:49:51.257Z,96011
2017-11-13T05:52:17.958Z,96007
2017-11-13T05:54:44.685Z,96012
2017-11-13T05:57:11.390Z,96011
2017-11-13T05:59:38.067Z,96010
2017-11-13T06:02:05.473Z,96013
2017-11-13T06:04:32.207Z,96019
2017-11-13T06:06:58.892Z,96023
2017-11-13T06:09:25.664Z,96032
2017-11-13T06:11:52.370Z,96048
2017-11-13T06:14:19.041Z,96048
2017-11-13T06:16:45.798Z,96054
2017-11-13T06:19:12.526Z,96064
2017-11-13T06:21:39.959Z,96071
2017-11-13T06:24:06.753Z,96080
2017-11-13T06:26:33.418Z,96079
2017-11-13T06:29:00.058Z,96084
2017-11-13T06:31:26.819Z,96080
2017-11-13T06:33:53.575Z,96082
2017-11-13T06:36:20.277Z,96088
2017-11-13T06:38:46.999Z,96083
2017-11-13T06:41:13.669Z,96083
2017-11-13T06:43:41.313Z,96092
2017-11-13T06:46:08.008Z,96095
2017-11-13T06:48:34.682Z,96103
2017-11-13T06:51:02.139Z,96098
2017-11-13T06:53:29.569Z,96089
2017-11-13T06:55:56.247Z,96078
2017-11-13T06:58:24.151Z,96083
2017-11-13T07:00:50.852Z,96078
2017-11-13T07:03:17.531Z,96071
2017-11-13T07:05:44.211Z,96073
2017-11-13T07:08:11.364Z,96078
2017-11-13T07:10:38.022Z,96085
2017-11-13T07:13:05.677Z,96091
2017-11-13T07:15:32.378Z,96089
2017-11-13T07:17:59.033Z,96093
2017-11-13T07:20:25.701Z,96090
2017-11-13T07:22:52.375Z,96096
2017-11-13T07:25:19.810Z,96091
2017-11-13T07:27:46.487Z,96091
2017-11-13T07:30:13.945Z,96094
2017-11-13T07:32:41.388Z,96102
2017-11-13T07:35:08.168Z,96099
2017-11-13T07:37:34.889Z,96099
2017-11-13T07:40:02.406Z,96110
2017-11-13T07:42:29.109Z,96113
2017-11-13T07:44:55.984Z,96109
2017-11-13T07:47:22.664Z,96113
2017-11-13T07:49:49.330Z,96123
2017-11-13T07:52:16.776Z,96124
2017-11-13T07:54:43.443Z,96134
2017-11-13T07:57:10.875Z,96145
2017-11-13T07:59:37.635Z,96139
2017-11-13T08:02:05.067Z,96148
2017-11-13T08:04:31.743Z,96156
2017-11-13T08:06:59.229Z,96163
2017-11-13T08:09:25.971Z,96165
2017-11-13T08:11:52.659Z,96170
2017-11-13T08:14:19.364Z,96176
2017-11-13T08:16:46.037Z,96195
2017-11-13T08:19:12.713Z,96211
2017-11-13T08:21:39.416Z,96218
2017-11-13T08:24:06.123Z,96218
2017-11-13T08:26:32.840Z,96226
2017-11-13T08:28:59.646Z,96223
2017-11-13T08:31:26.370Z,96214
2017-11-13T08:33:53.110Z,96218
2017-11-13T08:36:19.908Z,96219
2017-11-13T08:38:46.644Z,96225
2017-11-13T08:41:13.308Z,96233
2017-11-13T08:43:40.759Z,96222
2017-11-13T08:46:07.451Z,96225
2017-11-13T08:48:34.269Z,96234
2017-11-13T08:51:01.241Z,96238
2017-11-13T08:53:27.915Z,96248
2017-11-13T08:55:54.625Z,96251
2017-11-13T08:58:21.407Z,96249
2017-11-13T09:00:48.077Z,96246
2017-11-13T09:03:14.770Z,96250
2017-11-13T09:05:41.459Z,96263
2017-11-13T09:08:08.244Z,96273
2017-11-13T09:10:35.602Z,96281
2017-11-13T09:13:02.337Z,96279
2017-11-13T09:15:29.775Z,96275
2017-11-13T09:17:58.019Z,96278
2017-11-13T09:20:24.862Z,96260
2017-11-13T09:22:51.526Z,96260
2017-11-13T09:25:18.211Z,96252
2017-11-13T09:27:44.890Z,96253
2017-11-13T09:30:12.528Z,96261
2017-11-13T09:32:39.194Z,96278
2017-11-13T09:35:05.946Z,96278
2017-11-13T09:37:32.713Z,96282
2017-11-13T09:39:59.440Z,96281
2017-11-13T09:42:26.207Z,96293
2017-11-13T09:44:52.923Z,96286
2017-11-13T09:47:19.955Z,96285
2017-11-13T09:49:46.665Z,96277
2017-11-13T09:52:14.133Z,96285
2017-11-13T09:54:41.620Z,96280
2017-11-13T09:57:09.143Z,96279
2017-11-13T09:59:36.592Z,96283
2017-11-13T10:02:03.331Z,96281
2017-11-13T10:04:30.020Z,96277
2017-11-13T10:06:56.713Z,96278
2017-11-13T10:09:23.451Z,96269
2017-11-13T10:11:50.180Z,96265
2017-11-13T10:14:17.879Z,96264
2017-11-13T10:16:45.827Z,96266
2017-11-13T10:19:12.833Z,96268
2017-11-13T10:21:39.539Z,96278
2017-11-13T10:24:06.324Z,96282
2017-11-13T10:26:33.094Z,96284
2017-11-13T10:28:59.822Z,96287
2017-11-13T10:31:27.501Z,96292
2017-11-13T10:33:54.249Z,96302
2017-11-13T10:36:20.973Z,96301
2017-11-13T10:38:47.723Z,96298
2017-11-13T10:41:14.487Z,96296
2017-11-13T10:43:41.193Z,96302
2017-11-13T10:46:07.925Z,96306
2017-11-13T10:48:35.423Z,96305
2017-11-13T10:51:03.699Z,96316
2017-11-13T10:53:30.493Z,96313
2017-11-13T10:55:57.265Z,96328
2017-11-13T10:58:24.735Z,96324
2017-11-13T11:00:51.484Z,96326
2017-11-13T11:03:18.347Z,96343
2017-11-13T11:05:45.096Z,96335
2017-11-13T11:08:11.853Z,96347
2017-11-13T11:10:38.915Z,96346
2017-11-13T11:13:05.664Z,96343
2017-11-13T11:15:33.184Z,96342
2017-11-13T11:18:03.771Z,96341
2017-11-13T11:20:30.516Z,96341
2017-11-13T11:36:33.000Z,96347
2017-11-13T11:38:59.737Z,96333
2017-11-13T11:41:26.558Z,96344
2017-11-13T11:47:03.426Z,96350
2017-11-13T11:49:32.682Z,96350
2017-11-13T11:51:59.435Z,96358
2017-11-13T11:54:31.137Z,96363
2017-11-13T11:57:00.462Z,96368
2017-11-13T11:59:27.235Z,96373
2017-11-13T12:01:53.978Z,96365
2017-11-13T12:04:20.821Z,96361
2017-11-13T12:06:48.270Z,96357
2017-11-13T12:09:14.983Z,96352
2017-11-13T12:11:42.450Z,96360
2017-11-13T12:14:09.918Z,96361
2017-11-13T12:16:36.661Z,96362
2017-11-13T12:19:03.369Z,96365
2017-11-13T12:21:30.102Z,96356
2017-11-13T12:23:56.748Z,96368
2017-11-13T12:26:23.435Z,96375
2017-11-13T12:28:50.740Z,96382
2017-11-13T12:31:17.408Z,96384
2017-11-13T12:33:45.104Z,96390
2017-11-13T12:36:11.813Z,96398
2017-11-13T12:38:38.498Z,96409
2017-11-13T12:41:05.219Z,96401
2017-11-13T12:43:32.650Z,96404
2017-11-13T12:45:59.351Z,96407
2017-11-13T12:48:26.066Z,96410
2017-11-13T12:50:53.493Z,96413
2017-11-13T12:53:20.221Z,96415
2017-11-13T12:55:46.927Z,96408
2017-11-13T12:58:14.363Z,96418
2017-11-13T13:00:41.092Z,96424
2017-11-13T13:03:07.783Z,96419
2017-11-13T13:05:34.479Z,96420
2017-11-13T13:08:01.196Z,96425
2017-11-13T13:10:28.040Z,96420
2017-11-13T13:12:54.714Z,96427
2017-11-13T13:15:21.397Z,96433
2017-11-13T13:17:48.104Z,96433
2017-11-13T13:20:14.820Z,96448
2017-11-13T13:22:41.485Z,96459
2017-11-13T13:25:08.166Z,96466
2017-11-13T13:27:35.556Z,96473
2017-11-13T13:30:02.233Z,96483
2017-11-13T13:32:28.995Z,96485
2017-11-13T13:34:56.448Z,96490
2017-11-13T13:37:23.219Z,96503
2017-11-13T13:39:50.734Z,96503
2017-11-13T13:42:18.716Z,96509
2017-11-13T13:44:45.409Z,96509
2017-11-13T13:47:12.126Z,96499
2017-11-13T13:49:38.811Z,96509
2017-11-13T13:52:05.489Z,96501
2017-11-13T13:54:32.188Z,96512
2017-11-13T13:56:58.880Z,96518
2017-11-13T13:59:27.363Z,96525
2017-11-13T14:01:54.104Z,96529
2017-11-13T14:04:20.796Z,96542
2017-11-13T14:06:47.516Z,96537
2017-11-13T14:09:14.996Z,96540
2017-11-13T14:11:41.703Z,96549
2017-11-13T14:14:08.422Z,96546
2017-11-13T14:16:35.113Z,96542
2017-11-13T14:19:02.543Z,96521
2017-11-13T14:21:29.201Z,96529
2017-11-13T14:23:55.873Z,96541
2017-11-13T14:26:23.217Z,96546
2017-11-13T14:28:50.728Z,96550
2017-11-13T14:31:17.756Z,96542
2017-11-13T14:33:44.446Z,96549
2017-11-13T14:36:11.107Z,96555
2017-11-13T14:38:38.721Z,96559
2017-11-13T14:41:05.400Z,96578
2017-11-13T14:43:32.913Z,96565
2017-11-13T14:45:59.609Z,96567
2017-11-13T14:48:26.327Z,96548
2017-11-13T14:50:52.981Z,96542
2017-11-13T14:53:19.755Z,96544
2017-11-13T14:55:47.163Z,96547
2017-11-13T14:58:13.856Z,96538
2017-11-13T15:00:41.271Z,96545
2017-11-13T15:03:07.924Z,96541
2017-11-13T15:05:35.343Z,96540
2017-11-13T15:08:02.032Z,96543
2017-11-13T15:10:28.698Z,96539
2017-11-13T15:12:56.134Z,96546
2017-11-13T15:15:22.840Z,96560
2017-11-13T15:17:50.204Z,96560
2017-11-13T15:20:16.909Z,96570
2017-11-13T15:22:44.323Z,96576
2017-11-13T15:25:10.994Z,96584
2017-11-13T15:27:37.686Z,96581
2017-11-13T15:30:04.497Z,96591
2017-11-13T15:32:31.955Z,96592
2017-11-13T15:34:59.408Z,96599
2017-11-13T15:37:26.083Z,96590
2017-11-13T15:39:52.835Z,96588
2017-11-13T15:42:19.526Z,96586
2017-11-13T15:44:46.270Z,96592
2017-11-13T15:47:12.967Z,96602
2017-11-13T15:49:39.670Z,96595
2017-11-13T15:52:06.387Z,96599
2017-11-13T15:54:33.036Z,96604
2017-11-13T15:56:59.723Z,96616
2017-11-13T15:59:26.432Z,96619
2017-11-13T16:01:53.095Z,96620
2017-11-13T16:04:20.509Z,96621
2017-11-13T16:06:47.227Z,96613
2017-11-13T16:09:13.896Z,96633
2017-11-13T16:11:41.319Z,96641
2017-11-13T16:14:08.749Z,96657
2017-11-13T16:16:35.418Z,96668
2017-11-13T16:19:02.882Z,96656
2017-11-13T16:21:29.558Z,96646
2017-11-13T16:23:56.220Z,96664
2017-11-13T16:26:22.895Z,96669
2017-11-13T16:28:50.410Z,96683
2017-11-13T16:31:17.134Z,96682
2017-11-13T16:33:43.834Z,96681
2017-11-13T16:36:10.586Z,96687
2017-11-13T16:38:37.260Z,96687
2017-11-13T16:41:03.951Z,96681
2017-11-13T16:43:30.672Z,96686
2017-11-13T16:45:57.411Z,96685
2017-11-13T16:48:24.165Z,96680
2017-11-13T16:50:50.858Z,96686
2017-11-13T16:53:18.370Z,96698
2017-11-13T16:55:45.099Z,96705
2017-11-13T16:58:11.811Z,96713
2017-11-13T17:00:38.493Z,96729
2017-11-13T17:03:05.184Z,96737
2017-11-13T17:05:31.870Z,96727
2017-11-13T17:07:58.558Z,96738
2017-11-13T17:10:26.219Z,96746
2017-11-13T17:12:52.935Z,96746
2017-11-13T17:15:19.641Z,96748
2017-11-13T17:17:46.340Z,96768
2017-11-13T17:20:13.061Z,96773
2017-11-13T17:22:39.774Z,96778
2017-11-13T17:25:06.483Z,96779
2017-11-13T17:27:33.233Z,96800
2017-11-13T17:29:59.899Z,96789
2017-11-13T17:32:27.326Z,96778
2017-11-13T17:34:54.024Z,96781
2017-11-13T17:37:20.733Z,96794
2017-11-13T17:39:48.189Z,96805
2017-11-13T17:42:14.913Z,96813
2017-11-13T17:44:41.732Z,96826
2017-11-13T17:47:08.416Z,96833
2017-11-13T17:49:35.129Z,96838
2017-11-13T17:52:02.660Z,96837
2017-11-13T17:54:29.487Z,96845
2017-11-13T17:56:57.006Z,96851
2017-11-13T17:59:23.688Z,96851
2017-11-13T18:01:51.184Z,96861
2017-11-13T18:04:17.950Z,96863
2017-11-13T18:06:44.732Z,96864
2017-11-13T18:09:11.442Z,96878
2017-11-13T18:11:38.163Z,96881
2017-11-13T18:14:04.890Z,96879
2017-11-13T18:16:31.911Z,96880
2017-11-13T18:18:58.653Z,96892
2017-11-13T18:21:25.347Z,96890
2017-11-13T18:23:52.083Z,96901
2017-11-13T18:26:18.850Z,96899
2017-11-13T18:28:45.539Z,96913
2017-11-13T18:31:12.955Z,96910
2017-11-13T18:33:41.011Z,96910
2017-11-13T18:36:07.817Z,96904
2017-11-13T18:38:35.483Z,96916
2017-11-13T18:41:02.226Z,96920
2017-11-13T18:43:29.746Z,96922
2017-11-13T18:45:56.468Z,96927
2017-11-13T18:48:23.275Z,96928
2017-11-13T18:50:50.130Z,96934
2017-11-13T18:53:17.578Z,96929
2017-11-13T18:55:45.068Z,96928
2017-11-13T18:58:12.501Z,96929
2017-11-13T19:00:39.220Z,96924
2017-11-13T19:03:05.919Z,96945
2017-11-13T19:05:32.705Z,96944
2017-11-13T19:07:59.419Z,96950
2017-11-13T19:10:26.177Z,96961
2017-11-13T19:12:52.846Z,96965
2017-11-13T19:15:19.541Z,96964
2017-11-13T19:17:46.271Z,96969
2017-11-13T19:20:13.714Z,96978
2017-11-13T19:22:41.163Z,96980
2017-11-13T19:25:07.866Z,96977
2017-11-13T19:27:34.586Z,96979
2017-11-13T19:30:01.288Z,96980
2017-11-13T19:32:28.048Z,96986
2017-11-13T19:34:54.821Z,96982
2017-11-13T19:37:21.596Z,96986
2017-11-13T19:39:48.307Z,96979
2017-11-13T19:42:15.778Z,96977
2017-11-13T19:44:42.521Z,96981
2017-11-13T19:47:09.209Z,96980
2017-11-13T19:49:35.897Z,96979
2017-11-13T19:52:03.435Z,96983
2017-11-13T19:54:30.235Z,96976
2017-11-13T19:56:56.958Z,96978
2017-11-13T19:59:23.682Z,96975
2017-11-13T20:01:51.191Z,96970
2017-11-13T20:04:17.899Z,96966
2017-11-13T20:06:44.583Z,96974
2017-11-13T20:09:11.327Z,96969
2017-11-13T20:11:38.067Z,96978
2017-11-13T20:14:04.762Z,96969
2017-11-13T20:16:32.236Z,96965
2017-11-13T20:18:59.724Z,96970
2017-11-13T20:21:26.499Z,96964
2017-11-13T20:23:53.270Z,96971
2017-11-13T20:26:20.688Z,96974
2017-11-13T20:28:47.378Z,96982
2017-11-13T20:31:14.923Z,96983
2017-11-13T20:33:41.627Z,96991
2017-11-13T20:36:08.329Z,96990
2017-11-13T20:38:35.844Z,96991
2017-11-13T20:41:02.643Z,97004
2017-11-13T20:43:30.158Z,97014
2017-11-13T20:45:56.859Z,97009
2017-11-13T20:48:23.704Z,97009
2017-11-13T20:50:50.476Z,97014
2017-11-13T20:53:17.160Z,97014
2017-11-13T20:55:43.976Z,97016
2017-11-13T20:58:10.658Z,97012
2017-11-13T21:00:37.433Z,97004
2017-11-13T21:03:04.149Z,97011
2017-11-13T21:05:30.919Z,97003
2017-11-13T21:07:57.632Z,96999
2017-11-13T21:10:24.601Z,96995
2017-11-13T21:12:52.057Z,96977
2017-11-13T21:15:19.502Z,96988
2017-11-13T21:17:47.362Z,96983
2017-11-13T21:20:14.096Z,96998
2017-11-13T21:22:40.816Z,97003
2017-11-13T21:25:07.482Z,97011
2017-11-13T21:27:34.186Z,97013
2017-11-13T21:30:00.902Z,97011
2017-11-13T21:32:28.338Z,97019
2017-11-13T21:34:55.020Z,97023
2017-11-13T21:37:21.749Z,97021
2017-11-13T21:39:49.196Z,97028
2017-11-13T21:42:16.670Z,97031
2017-11-13T21:44:44.188Z,97033
2017-11-13T21:47:10.880Z,97044
2017-11-13T21:49:38.327Z,97063
2017-11-13T21:52:05.104Z,97076
2017-11-13T21:54:31.804Z,97081
2017-11-13T21:56:58.492Z,97084
2017-11-13T21:59:25.196Z,97086
2017-11-13T22:01:51.896Z,97083
2017-11-13T22:04:18.592Z,97077
2017-11-13T22:06:46.049Z,97064
2017-11-13T22:09:12.759Z,97066
2017-11-13T22:11:39.472Z,97057
2017-11-13T22:14:06.177Z,97066
2017-11-13T22:16:32.842Z,97068
2017-11-13T22:19:00.287Z,97073
2017-11-13T22:21:27.846Z,97081
2017-11-13T22:23:54.559Z,97097
2017-11-13T22:26:21.300Z,97110
2017-11-13T22:28:47.992Z,97121
2017-11-13T22:31:15.433Z,97125
2017-11-13T22:33:42.118Z,97122
2017-11-13T22:36:08.854Z,97118
2017-11-13T22:38:35.576Z,97116
2017-11-13T22:41:03.041Z,97126
2017-11-13T22:43:30.532Z,97135
2017-11-13T22:45:58.152Z,97141
2017-11-13T22:48:24.911Z,97130
2017-11-13T22:50:51.743Z,97125
2017-11-13T22:53:18.527Z,97131
2017-11-13T22:55:45.263Z,97136
2017-11-13T22:58:11.990Z,97132
2017-11-13T23:00:38.695Z,97132
2017-11-13T23:03:05.372Z,97139
2017-11-13T23:05:32.848Z,97138
2017-11-13T23:08:00.276Z,97137
2017-11-13T23:10:26.959Z,97137
2017-11-13T23:12:53.643Z,97139
2017-11-13T23:15:20.349Z,97136
2017-11-13T23:17:47.048Z,97145
2017-11-13T23:20:13.753Z,97149
2017-11-13T23:22:40.453Z,97161
2017-11-13T23:25:07.889Z,97160
2017-11-13T23:27:34.604Z,97155
2017-11-13T23:30:01.276Z,97160
2017-11-13T23:32:28.716Z,97166
2017-11-13T23:34:55.405Z,97165
2017-11-13T23:37:22.830Z,97167
2017-11-13T23:39:49.503Z,97175
2017-11-13T23:42:16.267Z,97181
2017-11-13T23:44:43.723Z,97191
2017-11-13T23:47:10.460Z,97197
2017-11-13T23:49:37.938Z,97197
2017-11-13T23:52:04.682Z,97203
2017-11-13T23:54:36.027Z,97199
2017-11-13T23:57:03.470Z,97200
2017-11-13T23:59:30.189Z,97203
